createdAt,value
2018-05-12T00:00:48.969Z,15.40
2018-05-12T00:03:16.418Z,15.20
2018-05-12T00:05:43.864Z,15.20
2018-05-12T00:08:11.328Z,15.10
2018-05-12T00:10:38.784Z,14.90
2018-05-12T00:13:06.246Z,14.80
2018-05-12T00:15:33.682Z,14.70
2018-05-12T00:18:01.129Z,14.80
2018-05-12T00:20:28.676Z,14.80
2018-05-12T00:22:56.069Z,14.70
2018-05-12T00:25:23.513Z,14.70
2018-05-12T00:27:50.959Z,14.70
2018-05-12T00:30:18.416Z,14.70
2018-05-12T00:32:45.864Z,14.70
2018-05-12T00:35:14.066Z,14.80
2018-05-12T00:37:41.525Z,14.70
2018-05-12T00:40:08.967Z,14.80
2018-05-12T00:42:36.413Z,14.80
2018-05-12T00:45:04.674Z,14.70
2018-05-12T00:47:32.114Z,14.70
2018-05-12T00:49:59.572Z,14.70
2018-05-12T00:52:27.009Z,14.70
2018-05-12T00:54:54.466Z,14.70
2018-05-12T00:57:21.898Z,14.60
2018-05-12T00:59:49.353Z,14.50
2018-05-12T01:02:16.786Z,14.50
2018-05-12T01:04:44.244Z,14.40
2018-05-12T01:07:11.702Z,14.30
2018-05-12T01:09:39.915Z,14.30
2018-05-12T01:12:07.346Z,14.20
2018-05-12T01:14:34.790Z,14.30
2018-05-12T01:17:02.238Z,14.30
2018-05-12T01:19:29.694Z,14.20
2018-05-12T01:21:57.226Z,14.20
2018-05-12T01:24:24.689Z,14.20
2018-05-12T01:26:52.130Z,14.10
2018-05-12T01:29:19.586Z,14.00
2018-05-12T01:31:47.021Z,13.90
2018-05-12T01:34:14.474Z,13.80
2018-05-12T01:36:41.924Z,13.80
2018-05-12T01:39:09.366Z,13.80
2018-05-12T01:41:36.833Z,13.80
2018-05-12T01:44:05.299Z,13.80
2018-05-12T01:46:33.502Z,13.70
2018-05-12T01:49:00.958Z,13.70
2018-05-12T01:51:28.425Z,13.70
2018-05-12T01:53:56.641Z,13.60
2018-05-12T01:56:25.104Z,13.60
2018-05-12T01:58:53.363Z,13.60
2018-05-12T02:01:20.815Z,13.60
2018-05-12T02:03:48.301Z,13.60
2018-05-12T02:06:15.803Z,13.60
2018-05-12T02:08:43.221Z,13.70
2018-05-12T02:11:11.326Z,13.70
2018-05-12T02:13:38.754Z,13.60
2018-05-12T02:16:06.237Z,13.50
2018-05-12T02:18:33.666Z,13.50
2018-05-12T02:21:01.113Z,13.40
2018-05-12T02:23:28.567Z,13.40
2018-05-12T02:25:56.784Z,13.30
2018-05-12T02:28:24.838Z,13.30
2018-05-12T02:30:52.282Z,13.30
2018-05-12T02:33:19.749Z,13.40
2018-05-12T02:35:47.216Z,13.30
2018-05-12T02:38:15.431Z,13.20
2018-05-12T02:40:42.901Z,13.20
2018-05-12T02:45:46.250Z,13.20
2018-05-12T02:48:13.715Z,13.10
2018-05-12T02:50:41.182Z,13.10
2018-05-12T02:53:09.398Z,13.10
2018-05-12T02:55:37.607Z,13.20
2018-05-12T02:58:05.057Z,13.20
2018-05-12T03:00:32.505Z,13.20
2018-05-12T03:02:59.958Z,13.40
2018-05-12T03:05:27.550Z,13.40
2018-05-12T03:07:54.982Z,13.50
2018-05-12T03:10:22.436Z,13.60
2018-05-12T03:12:49.905Z,13.60
2018-05-12T03:15:18.145Z,13.60
2018-05-12T03:17:45.580Z,13.60
2018-05-12T03:20:13.037Z,13.60
2018-05-12T03:22:40.515Z,13.60
2018-05-12T03:25:08.726Z,13.50
2018-05-12T03:27:36.185Z,13.50
2018-05-12T03:30:03.638Z,13.50
2018-05-12T03:32:31.857Z,13.50
2018-05-12T03:34:59.300Z,13.50
2018-05-12T03:37:26.742Z,13.50
2018-05-12T03:39:54.195Z,13.40
2018-05-12T03:42:21.734Z,13.30
2018-05-12T03:44:49.194Z,13.40
2018-05-12T03:47:16.645Z,13.40
2018-05-12T03:49:44.103Z,13.30
2018-05-12T03:52:12.315Z,13.00
2018-05-12T03:54:39.754Z,13.00
2018-05-12T03:57:07.241Z,12.90
2018-05-12T03:59:34.749Z,12.90
2018-05-12T04:02:02.207Z,13.00
2018-05-12T04:04:41.506Z,13.00
2018-05-12T04:07:20.995Z,13.00
2018-05-12T04:10:02.100Z,13.20
2018-05-12T04:12:38.024Z,13.10
2018-05-12T04:15:05.486Z,13.20
2018-05-12T04:17:33.025Z,13.20
2018-05-12T04:20:00.462Z,13.30
2018-05-12T04:22:27.958Z,13.30
2018-05-12T04:24:55.403Z,13.20
2018-05-12T04:27:23.611Z,13.20
2018-05-12T04:29:51.059Z,13.20
2018-05-12T04:32:18.508Z,13.20
2018-05-12T04:34:46.710Z,13.20
2018-05-12T04:37:14.938Z,13.20
2018-05-12T04:39:42.382Z,13.20
2018-05-12T04:42:09.827Z,13.20
2018-05-12T04:44:37.281Z,13.00
2018-05-12T04:47:04.799Z,13.00
2018-05-12T04:49:32.245Z,13.10
2018-05-12T04:51:59.690Z,13.10
2018-05-12T04:54:27.132Z,13.20
2018-05-12T04:56:54.600Z,13.20
2018-05-12T04:59:22.052Z,13.30
2018-05-12T05:01:49.521Z,13.30
2018-05-12T05:04:16.967Z,13.30
2018-05-12T05:06:44.406Z,13.30
2018-05-12T05:09:11.863Z,13.30
2018-05-12T05:11:39.302Z,13.20
2018-05-12T05:14:06.744Z,13.20
2018-05-12T05:16:34.182Z,13.30
2018-05-12T05:19:01.628Z,13.30
2018-05-12T05:21:29.090Z,13.40
2018-05-12T05:23:56.538Z,13.50
2018-05-12T05:26:23.987Z,13.70
2018-05-12T05:28:51.446Z,13.80
2018-05-12T05:31:18.890Z,14.00
2018-05-12T05:33:46.346Z,14.10
2018-05-12T05:36:13.805Z,14.30
2018-05-12T05:38:42.034Z,14.50
2018-05-12T05:41:09.474Z,14.40
2018-05-12T05:43:36.944Z,14.50
2018-05-12T05:46:04.382Z,14.60
2018-05-12T05:48:32.593Z,14.90
2018-05-12T05:51:00.046Z,14.80
2018-05-12T05:53:27.493Z,15.00
2018-05-12T05:55:54.943Z,15.20
2018-05-12T05:58:22.403Z,15.20
2018-05-12T06:00:49.866Z,15.30
2018-05-12T06:03:17.322Z,15.40
2018-05-12T06:05:45.540Z,15.50
2018-05-12T06:08:12.997Z,15.50
2018-05-12T06:13:14.306Z,15.70
2018-05-12T06:15:41.751Z,15.80
2018-05-12T06:18:09.269Z,15.70
2018-05-12T06:20:36.666Z,15.60
2018-05-12T06:23:04.150Z,15.80
2018-05-12T06:25:31.618Z,15.90
2018-05-12T06:27:59.072Z,16.10
2018-05-12T06:30:26.544Z,16.50
2018-05-12T06:32:53.985Z,16.80
2018-05-12T06:35:22.269Z,17.60
2018-05-12T06:37:50.473Z,17.80
2018-05-12T06:40:17.931Z,17.80
2018-05-12T06:42:45.384Z,18.10
2018-05-12T06:45:13.319Z,18.40
2018-05-12T06:47:40.769Z,18.70
2018-05-12T06:50:08.203Z,18.80
2018-05-12T06:52:35.672Z,18.90
2018-05-12T06:55:03.122Z,19.00
2018-05-12T06:57:31.371Z,19.30
2018-05-12T06:59:58.817Z,19.20
2018-05-12T07:02:26.294Z,19.20
2018-05-12T07:04:53.790Z,19.20
2018-05-12T07:07:21.239Z,19.20
2018-05-12T07:09:48.674Z,19.30
2018-05-12T07:12:16.182Z,19.30
2018-05-12T07:14:44.341Z,19.50
2018-05-12T07:17:11.793Z,19.50
2018-05-12T07:19:39.234Z,19.50
2018-05-12T07:22:06.703Z,19.60
2018-05-12T07:24:34.162Z,19.60
2018-05-12T07:27:01.629Z,19.60
2018-05-12T07:29:29.850Z,19.80
2018-05-12T07:31:57.334Z,19.80
2018-05-12T07:34:25.557Z,20.10
2018-05-12T07:36:52.983Z,20.10
2018-05-12T07:39:20.434Z,20.30
2018-05-12T07:41:47.892Z,20.60
2018-05-12T07:44:15.339Z,20.80
2018-05-12T07:46:42.786Z,21.00
2018-05-12T07:49:10.238Z,21.40
2018-05-12T07:51:37.794Z,21.60
2018-05-12T07:54:05.154Z,22.00
2018-05-12T07:56:32.599Z,22.30
2018-05-12T07:59:00.059Z,22.60
2018-05-12T08:01:27.518Z,22.80
2018-05-12T08:03:56.175Z,22.80
2018-05-12T08:06:23.686Z,22.70
2018-05-12T08:08:51.909Z,23.50
2018-05-12T08:11:19.398Z,23.50
2018-05-12T08:13:47.622Z,23.40
2018-05-12T08:16:15.050Z,23.40
2018-05-12T08:18:42.522Z,23.80
2018-05-12T08:21:10.729Z,24.10
2018-05-12T08:23:38.165Z,24.10
2018-05-12T08:26:05.619Z,24.70
2018-05-12T08:28:33.071Z,25.00
2018-05-12T08:31:00.586Z,24.50
2018-05-12T08:33:28.031Z,24.80
2018-05-12T08:35:55.489Z,25.00
2018-05-12T08:38:22.965Z,25.00
2018-05-12T08:40:50.451Z,24.80
2018-05-12T08:43:17.893Z,24.80
2018-05-12T08:45:45.410Z,24.80
2018-05-12T08:48:13.657Z,24.70
2018-05-12T08:50:41.080Z,24.70
2018-05-12T08:53:08.527Z,25.00
2018-05-12T08:55:35.985Z,25.60
2018-05-12T08:58:03.443Z,25.50
2018-05-12T09:00:31.691Z,26.40
2018-05-12T09:02:59.142Z,26.30
2018-05-12T09:05:27.359Z,25.80
2018-05-12T09:07:54.822Z,25.80
2018-05-12T09:10:22.273Z,25.00
2018-05-12T09:12:49.733Z,24.80
2018-05-12T09:15:17.190Z,25.50
2018-05-12T09:17:44.643Z,25.40
2018-05-12T09:20:12.070Z,25.60
2018-05-12T09:22:40.297Z,26.00
2018-05-12T09:25:07.755Z,26.00
2018-05-12T09:27:35.238Z,26.20
2018-05-12T09:30:02.681Z,26.70
2018-05-12T09:32:30.127Z,26.50
2018-05-12T09:34:57.586Z,26.60
2018-05-12T09:37:25.069Z,27.10
2018-05-12T09:39:52.525Z,26.20
2018-05-12T09:42:20.060Z,26.10
2018-05-12T09:44:47.423Z,26.30
2018-05-12T09:47:15.627Z,27.30
2018-05-12T09:49:43.108Z,27.40
2018-05-12T09:52:10.550Z,28.00
2018-05-12T09:54:38.018Z,27.30
2018-05-12T09:57:06.356Z,27.10
2018-05-12T09:59:33.844Z,27.80
2018-05-12T10:02:01.274Z,27.70
2018-05-12T10:04:28.778Z,26.70
2018-05-12T10:06:56.226Z,26.20
2018-05-12T10:09:23.670Z,26.40
2018-05-12T10:11:51.181Z,27.00
2018-05-12T10:14:18.613Z,26.50
2018-05-12T10:16:46.053Z,26.60
2018-05-12T10:19:13.502Z,26.30
2018-05-12T10:21:40.965Z,26.10
2018-05-12T10:24:08.398Z,26.30
2018-05-12T10:26:35.873Z,26.80
2018-05-12T10:29:03.325Z,26.90
2018-05-12T10:31:30.794Z,26.50
2018-05-12T10:33:58.237Z,26.60
2018-05-12T10:36:25.698Z,27.20
2018-05-12T10:38:53.148Z,26.90
2018-05-12T10:41:20.608Z,27.50
2018-05-12T10:43:48.043Z,27.60
2018-05-12T10:46:15.553Z,27.90
2018-05-12T10:48:42.995Z,27.30
2018-05-12T10:51:10.466Z,26.50
2018-05-12T10:53:37.921Z,25.90
2018-05-12T10:56:05.387Z,25.50
2018-05-12T10:58:32.846Z,25.60
2018-05-12T11:01:00.274Z,25.70
2018-05-12T11:03:27.746Z,25.20
2018-05-12T11:05:55.975Z,24.90
2018-05-12T11:08:23.433Z,24.90
2018-05-12T11:10:51.689Z,25.20
2018-05-12T11:13:19.126Z,25.20
2018-05-12T11:15:47.617Z,25.10
2018-05-12T11:18:15.086Z,24.20
2018-05-12T11:20:42.562Z,23.80
2018-05-12T11:23:10.018Z,24.00
2018-05-12T11:25:37.541Z,24.10
2018-05-12T11:28:05.034Z,24.30
2018-05-12T11:30:32.492Z,24.50
2018-05-12T11:32:59.946Z,24.40
2018-05-12T11:35:27.395Z,24.30
2018-05-12T11:37:54.853Z,24.00
2018-05-12T11:40:22.360Z,23.80
2018-05-12T11:42:49.816Z,23.80
2018-05-12T11:45:17.257Z,23.90
2018-05-12T11:47:44.730Z,23.80
2018-05-12T11:50:12.962Z,23.80
2018-05-12T11:52:40.374Z,23.80
2018-05-12T11:55:08.598Z,23.70
2018-05-12T11:57:36.080Z,23.70
2018-05-12T12:00:03.559Z,23.80
2018-05-12T12:02:31.067Z,23.80
2018-05-12T12:04:58.457Z,23.80
2018-05-12T12:07:25.907Z,24.10
2018-05-12T12:09:53.354Z,24.20
2018-05-12T12:12:20.800Z,24.10
2018-05-12T12:14:48.258Z,24.00
2018-05-12T12:17:15.682Z,24.20
2018-05-12T12:19:43.127Z,24.30
2018-05-12T12:22:10.568Z,24.50
2018-05-12T12:24:38.074Z,24.50
2018-05-12T12:27:05.557Z,24.50
2018-05-12T12:29:33.017Z,24.60
2018-05-12T12:32:00.501Z,24.70
2018-05-12T12:34:27.947Z,24.70
2018-05-12T12:36:55.402Z,24.70
2018-05-12T12:39:22.857Z,24.50
2018-05-12T12:41:50.326Z,24.60
2018-05-12T12:44:17.770Z,24.70
2018-05-12T12:46:45.216Z,24.50
2018-05-12T12:49:12.686Z,24.40
2018-05-12T12:51:40.992Z,24.50
2018-05-12T12:54:08.433Z,24.50
2018-05-12T12:56:35.885Z,24.70
2018-05-12T12:59:03.387Z,24.80
2018-05-12T13:01:31.609Z,25.00
2018-05-12T13:03:59.086Z,25.00
2018-05-12T13:06:27.275Z,24.70
2018-05-12T13:08:54.727Z,24.60
2018-05-12T13:11:22.185Z,24.60
2018-05-12T13:13:49.637Z,24.70
2018-05-12T13:19:07.669Z,24.90
2018-05-12T13:21:35.153Z,25.20
2018-05-12T13:24:03.329Z,25.40
2018-05-12T13:26:30.770Z,25.40
2018-05-12T13:28:58.227Z,25.30
2018-05-12T13:31:25.683Z,25.20
2018-05-12T13:33:53.130Z,25.10
2018-05-12T13:36:20.600Z,25.10
2018-05-12T13:38:48.063Z,25.00
2018-05-12T13:41:16.276Z,25.00
2018-05-12T13:43:43.726Z,25.00
2018-05-12T13:46:11.968Z,24.80
2018-05-12T13:48:39.403Z,24.80
2018-05-12T13:51:06.876Z,24.80
2018-05-12T13:53:34.333Z,25.10
2018-05-12T13:56:01.886Z,25.00
2018-05-12T13:58:29.320Z,24.90
2018-05-12T14:00:56.862Z,24.90
2018-05-12T14:03:24.342Z,24.80
2018-05-12T14:05:52.542Z,24.80
2018-05-12T14:08:19.980Z,24.80
2018-05-12T14:10:47.434Z,24.70
2018-05-12T14:13:14.880Z,24.70
2018-05-12T14:15:42.321Z,24.70
2018-05-12T14:18:09.779Z,24.80
2018-05-12T14:20:37.210Z,24.90
2018-05-12T14:23:05.607Z,24.90
2018-05-12T14:25:33.809Z,25.00
2018-05-12T14:28:01.266Z,25.00
2018-05-12T14:30:28.851Z,24.90
2018-05-12T14:32:57.222Z,24.80
2018-05-12T14:35:25.423Z,24.90
2018-05-12T14:37:52.862Z,24.90
2018-05-12T14:40:20.313Z,25.00
2018-05-12T14:42:47.770Z,25.10
2018-05-12T14:45:15.297Z,25.10
2018-05-12T14:47:42.740Z,24.90
2018-05-12T14:50:10.173Z,24.90
2018-05-12T14:52:37.640Z,25.00
2018-05-12T14:55:05.083Z,25.00
2018-05-12T14:57:32.538Z,25.20
2018-05-12T14:59:59.973Z,25.20
2018-05-12T15:02:27.481Z,25.20
2018-05-12T15:04:54.873Z,25.30
2018-05-12T15:07:22.307Z,25.30
2018-05-12T15:09:51.257Z,25.40
2018-05-12T15:12:18.704Z,25.40
2018-05-12T15:14:46.218Z,25.20
2018-05-12T15:17:13.720Z,25.10
2018-05-12T15:19:41.167Z,25.20
2018-05-12T15:22:08.611Z,25.20
2018-05-12T15:24:36.109Z,25.20
2018-05-12T15:27:03.565Z,25.20
2018-05-12T15:29:30.993Z,25.20
2018-05-12T15:31:58.446Z,25.30
2018-05-12T15:34:25.907Z,25.20
2018-05-12T15:36:53.392Z,25.20
2018-05-12T15:39:21.634Z,25.30
2018-05-12T15:41:50.012Z,25.30
2018-05-12T15:44:17.439Z,25.00
2018-05-12T15:46:44.941Z,25.00
2018-05-12T15:49:12.367Z,25.00
2018-05-12T15:51:39.820Z,24.80
2018-05-12T15:54:07.272Z,24.70
2018-05-12T15:56:34.718Z,24.60
2018-05-12T15:59:02.166Z,24.70
2018-05-12T16:01:29.626Z,24.80
2018-05-12T16:03:57.082Z,24.90
2018-05-12T16:06:24.529Z,24.90
2018-05-12T16:08:51.954Z,24.90
2018-05-12T16:11:19.385Z,24.90
2018-05-12T16:13:46.831Z,25.00
2018-05-12T16:16:14.319Z,25.10
2018-05-12T16:18:42.540Z,25.20
2018-05-12T16:21:09.967Z,25.20
2018-05-12T16:23:37.411Z,25.10
2018-05-12T16:26:04.834Z,25.00
2018-05-12T16:28:32.269Z,24.90
2018-05-12T16:30:59.730Z,24.90
2018-05-12T16:33:27.182Z,24.80
2018-05-12T16:35:54.602Z,24.70
2018-05-12T16:38:22.058Z,24.70
2018-05-12T16:40:49.504Z,24.50
2018-05-12T16:43:16.966Z,24.50
2018-05-12T16:45:44.424Z,24.50
2018-05-12T16:48:11.879Z,24.50
2018-05-12T16:50:39.305Z,24.50
2018-05-12T16:53:06.741Z,24.50
2018-05-12T16:55:34.193Z,24.50
2018-05-12T16:58:01.641Z,24.50
2018-05-12T17:00:29.099Z,24.50
2018-05-12T17:02:57.306Z,24.60
2018-05-12T17:05:25.086Z,24.60
2018-05-12T17:07:52.518Z,24.60
2018-05-12T17:10:19.950Z,24.60
2018-05-12T17:12:47.391Z,24.50
2018-05-12T17:15:14.817Z,24.50
2018-05-12T17:17:42.318Z,24.50
2018-05-12T17:20:09.838Z,24.50
2018-05-12T17:22:37.294Z,24.40
2018-05-12T17:25:04.722Z,24.40
2018-05-12T17:27:32.174Z,24.40
2018-05-12T17:29:59.703Z,24.40
2018-05-12T17:32:27.141Z,24.30
2018-05-12T17:34:54.569Z,24.30
2018-05-12T17:37:22.010Z,24.30
2018-05-12T17:39:49.446Z,24.30
2018-05-12T17:42:16.913Z,24.30
2018-05-12T17:44:44.370Z,24.20
2018-05-12T17:47:11.813Z,24.20
2018-05-12T17:49:39.241Z,24.10
2018-05-12T17:52:06.673Z,24.10
2018-05-12T17:54:34.122Z,24.00
2018-05-12T17:57:01.570Z,24.00
2018-05-12T17:59:29.030Z,23.90
2018-05-12T18:01:56.466Z,23.90
2018-05-12T18:04:23.963Z,23.80
2018-05-12T18:06:51.462Z,23.80
2018-05-12T18:09:19.703Z,23.70
2018-05-12T18:11:47.135Z,23.70
2018-05-12T18:14:14.571Z,23.60
2018-05-12T18:16:42.046Z,23.60
2018-05-12T18:19:09.514Z,23.50
2018-05-12T18:21:36.971Z,23.60
2018-05-12T18:24:05.205Z,23.40
2018-05-12T18:26:32.671Z,23.40
2018-05-12T18:29:00.889Z,23.30
2018-05-12T18:31:28.333Z,23.30
2018-05-12T18:33:55.787Z,23.30
2018-05-12T18:36:23.230Z,23.20
2018-05-12T18:38:50.699Z,23.20
2018-05-12T18:41:18.231Z,23.10
2018-05-12T18:43:45.769Z,23.10
2018-05-12T18:46:13.227Z,23.00
2018-05-12T18:48:40.667Z,23.00
2018-05-12T18:51:08.095Z,23.00
2018-05-12T18:53:35.554Z,23.00
2018-05-12T18:56:03.000Z,22.80
2018-05-12T18:58:30.450Z,22.80
2018-05-12T19:00:58.651Z,22.80
2018-05-12T19:03:26.100Z,22.80
2018-05-12T19:05:53.539Z,22.80
2018-05-12T19:08:21.022Z,22.70
2018-05-12T19:10:48.566Z,22.60
2018-05-12T19:13:16.014Z,22.60
2018-05-12T19:15:43.459Z,22.50
2018-05-12T19:18:10.913Z,22.40
2018-05-12T19:20:39.107Z,22.30
2018-05-12T19:23:06.558Z,22.20
2018-05-12T19:25:34.030Z,22.20
2018-05-12T19:28:01.511Z,22.10
2018-05-12T19:30:28.945Z,22.00
2018-05-12T19:32:56.394Z,21.90
2018-05-12T19:35:24.595Z,22.00
2018-05-12T19:37:52.027Z,22.00
2018-05-12T19:40:19.467Z,21.90
2018-05-12T19:42:46.923Z,21.80
2018-05-12T19:45:14.483Z,21.80
2018-05-12T19:47:41.917Z,21.70
2018-05-12T19:50:09.362Z,21.50
2018-05-12T19:52:36.793Z,21.50
2018-05-12T19:55:04.249Z,21.40
2018-05-12T19:57:31.712Z,21.30
2018-05-12T19:59:59.146Z,21.30
2018-05-12T20:02:26.584Z,21.30
2018-05-12T20:04:54.141Z,21.30
2018-05-12T20:07:22.258Z,21.30
2018-05-12T20:09:49.716Z,21.30
2018-05-12T20:12:21.978Z,21.20
2018-05-12T20:14:49.412Z,21.20
2018-05-12T20:17:16.857Z,21.20
2018-05-12T20:19:44.341Z,21.30
2018-05-12T20:22:11.784Z,21.20
2018-05-12T20:24:39.242Z,21.20
2018-05-12T20:27:07.433Z,21.10
2018-05-12T20:29:34.875Z,21.10
2018-05-12T20:32:02.342Z,21.00
2018-05-12T20:34:29.799Z,21.00
2018-05-12T20:36:57.293Z,20.90
2018-05-12T20:39:24.730Z,20.80
2018-05-12T20:41:52.154Z,20.80
2018-05-12T20:44:20.364Z,20.70
2018-05-12T20:46:47.797Z,20.70
2018-05-12T20:49:15.249Z,20.70
2018-05-12T20:51:42.698Z,20.70
2018-05-12T20:54:10.157Z,20.70
2018-05-12T20:56:37.617Z,20.60
2018-05-12T20:59:05.079Z,20.60
2018-05-12T21:01:33.274Z,20.40
2018-05-12T21:04:00.724Z,20.40
2018-05-12T21:06:28.174Z,20.40
2018-05-12T21:08:55.619Z,20.40
2018-05-12T21:11:23.118Z,20.40
2018-05-12T21:13:50.552Z,20.40
2018-05-12T21:16:18.751Z,20.40
2018-05-12T21:18:46.206Z,20.30
2018-05-12T21:21:13.660Z,20.30
2018-05-12T21:23:41.106Z,20.40
2018-05-12T21:26:08.550Z,20.40
2018-05-12T21:28:36.002Z,20.30
2018-05-12T21:31:03.458Z,20.30
2018-05-12T21:33:32.137Z,20.00
2018-05-12T21:36:00.357Z,20.00
2018-05-12T21:38:27.789Z,20.00
2018-05-12T21:40:55.250Z,20.00
2018-05-12T21:43:23.443Z,19.70
2018-05-12T21:45:50.915Z,19.70
2018-05-12T21:48:18.339Z,19.70
2018-05-12T21:50:46.546Z,19.80
2018-05-12T21:53:13.986Z,19.80
2018-05-12T21:55:41.458Z,19.80
2018-05-12T21:58:08.897Z,19.80
2018-05-12T22:00:36.338Z,19.90
2018-05-12T22:03:03.770Z,19.80
2018-05-12T22:05:31.225Z,19.70
2018-05-12T22:07:58.745Z,19.80
2018-05-12T22:10:26.142Z,19.60
2018-05-12T22:12:54.355Z,19.30
2018-05-12T22:15:21.832Z,19.30
2018-05-12T22:17:49.259Z,19.30
2018-05-12T22:20:16.725Z,19.20
2018-05-12T22:22:44.915Z,19.20
2018-05-12T22:25:12.372Z,19.20
2018-05-12T22:27:39.813Z,19.20
2018-05-12T22:30:07.286Z,19.20
2018-05-12T22:32:34.731Z,19.20
2018-05-12T22:35:02.184Z,19.20
2018-05-12T22:37:29.622Z,19.30
2018-05-12T22:39:57.073Z,19.40
2018-05-12T22:42:24.528Z,19.20
2018-05-12T22:44:52.748Z,19.00
2018-05-12T22:47:20.327Z,19.00
2018-05-12T22:49:47.748Z,19.10
2018-05-12T22:52:15.220Z,19.20
2018-05-12T22:54:42.665Z,19.10
2018-05-12T22:57:10.873Z,19.10
2018-05-12T22:59:38.314Z,19.10
2018-05-12T23:02:05.750Z,19.00
2018-05-12T23:04:33.190Z,18.80
2018-05-12T23:07:01.450Z,18.70
2018-05-12T23:09:28.886Z,18.70
2018-05-12T23:11:56.316Z,18.70
2018-05-12T23:14:23.769Z,18.80
2018-05-12T23:16:51.210Z,18.80
2018-05-12T23:19:18.668Z,18.80
2018-05-12T23:21:46.117Z,18.90
2018-05-12T23:24:13.567Z,18.90
2018-05-12T23:26:41.037Z,18.80
2018-05-12T23:29:08.489Z,18.80
2018-05-12T23:31:36.693Z,18.70
2018-05-12T23:34:04.146Z,18.80
2018-05-12T23:36:31.583Z,18.80
2018-05-12T23:38:59.031Z,18.80
2018-05-12T23:41:26.494Z,18.80
2018-05-12T23:43:53.933Z,18.80
2018-05-12T23:46:21.390Z,18.80
2018-05-12T23:48:48.851Z,18.80
2018-05-12T23:51:17.115Z,18.90
2018-05-12T23:53:44.510Z,18.90
2018-05-12T23:56:11.965Z,18.80
2018-05-12T23:58:39.462Z,18.80
